Time;durP1;ratioP1;P1;durP2;ratioP2;P2;SDS_P1;SDS_P2;PMS_P1;PMS_P2;Temp;Humidity;BMP_temperature;BMP_pressure;BME280_temperature;BME280_humidity;BME280_pressure;Samples;Min_cycle;Max_cycle;Signal;HPM_P1;HPM_P2
2021/01/15 00:01:35;;;;;;;21.10;11.73;;;25.60;2201.60;;;;;;5092112;28;20502;-70
2021/01/15 00:04:00;;;;;;;18.95;9.63;;;25.60;2201.60;;;;;;5092050;28;20484;-72
2021/01/15 00:06:26;;;;;;;18.65;10.35;;;25.60;2201.60;;;;;;5091951;28;20016;-72
2021/01/15 00:08:53;;;;;;;15.15;8.40;;;25.60;2201.60;;;;;;5092073;28;20016;-70
2021/01/15 00:11:25;;;;;;;15.15;8.40;;;25.60;2201.60;;;;;;5092242;28;20035;-71
2021/01/15 00:13:51;;;;;;;18.05;10.05;;;25.60;2201.60;;;;;;5091637;28;20496;-72
2021/01/15 00:16:21;;;;;;;15.40;8.75;;;25.60;2201.60;;;;;;5060577;28;20021;-72
2021/01/15 00:18:47;;;;;;;16.60;8.95;;;25.60;2201.60;;;;;;5074748;28;20499;-71
2021/01/15 00:21:20;;;;;;;19.50;10.32;;;25.60;2201.60;;;;;;5057512;28;20388;-72
2021/01/15 00:23:45;;;;;;;14.10;8.27;;;25.60;2201.60;;;;;;5073771;28;20501;-70
2021/01/15 00:26:18;;;;;;;13.98;7.22;;;25.60;2201.60;;;;;;5073707;28;20029;-70
2021/01/15 00:28:46;;;;;;;21.88;11.75;;;25.60;2201.60;;;;;;5057699;28;20008;-73
2021/01/15 00:31:12;;;;;;;13.25;7.40;;;25.60;2201.60;;;;;;5073920;28;20059;-78
2021/01/15 00:33:38;;;;;;;12.57;7.57;;;25.60;2201.60;;;;;;5091844;28;20472;-71
2021/01/15 00:36:05;;;;;;;10.60;6.50;;;25.60;2201.60;;;;;;5095173;28;20528;-71
2021/01/15 00:38:30;;;;;;;10.15;6.47;;;25.60;2201.60;;;;;;5096071;28;20012;-70
2021/01/15 00:41:06;;;;;;;9.88;6.95;;;0.90;2201.60;;;;;;5095499;28;20024;-71
2021/01/15 00:43:32;;;;;;;11.57;7.55;;;0.90;2201.60;;;;;;5075909;28;20016;-69
2021/01/15 00:45:58;;;;;;;10.70;6.82;;;0.90;2201.60;;;;;;5095672;28;20012;-71
2021/01/15 00:48:24;;;;;;;10.57;6.38;;;0.80;2201.60;;;;;;5095491;28;20150;-70
2021/01/15 00:50:49;;;;;;;9.88;6.45;;;0.80;2201.60;;;;;;5095341;28;20473;-70
2021/01/15 00:53:15;;;;;;;10.40;6.30;;;0.80;2201.60;;;;;;5093288;28;20050;-69
2021/01/15 00:55:40;;;;;;;10.43;6.20;;;0.70;2201.60;;;;;;5076674;28;20032;-70
2021/01/15 00:58:06;;;;;;;10.40;6.03;;;0.70;2201.60;;;;;;5077202;28;20095;-70
2021/01/15 01:00:32;;;;;;;10.43;5.90;;;0.70;2201.60;;;;;;5077416;28;20468;-70
2021/01/15 01:02:57;;;;;;;10.45;6.35;;;0.70;2201.60;;;;;;5095034;28;20032;-73
2021/01/15 01:05:24;;;;;;;10.38;5.93;;;0.70;2201.60;;;;;;5077185;28;20413;-71
2021/01/15 01:07:50;;;;;;;10.65;6.40;;;0.70;2201.60;;;;;;5095028;28;20408;-69
2021/01/15 01:10:15;;;;;;;9.90;6.43;;;0.70;2201.60;;;;;;5095047;28;20016;-70
2021/01/15 01:12:41;;;;;;;12.25;6.85;;;0.70;2201.60;;;;;;5094869;28;20028;-70
2021/01/15 01:15:11;;;;;;;10.93;6.07;;;0.70;2201.60;;;;;;5095013;28;20028;-70
2021/01/15 01:17:39;;;;;;;11.00;6.38;;;0.70;2201.60;;;;;;5076501;28;20063;-71
2021/01/15 01:20:07;;;;;;;11.70;6.65;;;0.70;2201.60;;;;;;5094866;28;20024;-71
2021/01/15 01:22:33;;;;;;;10.02;5.80;;;0.70;2201.60;;;;;;5094630;28;20160;-71
2021/01/15 01:24:58;;;;;;;11.10;6.50;;;0.70;2201.60;;;;;;5076690;28;20016;-71
2021/01/15 01:27:24;;;;;;;10.75;6.15;;;0.70;2201.60;;;;;;5076477;28;20020;-71
2021/01/15 01:29:49;;;;;;;14.45;7.63;;;0.70;2201.60;;;;;;5094435;28;20023;-71
2021/01/15 01:32:15;;;;;;;10.75;6.53;;;0.70;2201.60;;;;;;5094516;28;20058;-71
2021/01/15 01:34:41;;;;;;;11.25;6.63;;;0.70;2201.60;;;;;;5076314;28;20027;-72
2021/01/15 01:37:06;;;;;;;13.77;7.82;;;0.70;2201.60;;;;;;5094534;28;20048;-71
2021/01/15 01:39:32;;;;;;;15.90;8.15;;;0.80;2201.60;;;;;;5094603;28;20036;-71
2021/01/15 01:41:58;;;;;;;12.40;7.90;;;0.80;2201.60;;;;;;5095044;28;20485;-72
2021/01/15 01:44:24;;;;;;;13.02;7.75;;;0.80;2201.60;;;;;;5095169;28;20150;-72
2021/01/15 01:46:50;;;;;;;15.30;8.95;;;0.80;2201.60;;;;;;5094983;28;20791;-72
2021/01/15 01:49:16;;;;;;;13.20;8.00;;;0.80;2201.60;;;;;;5060522;28;20024;-72
2021/01/15 01:51:41;;;;;;;16.13;8.93;;;0.80;2201.60;;;;;;5094695;28;20035;-72
2021/01/15 01:54:08;;;;;;;20.73;12.00;;;0.90;2201.60;;;;;;5077151;28;20542;-71
2021/01/15 01:56:33;;;;;;;29.17;15.80;;;0.90;2201.60;;;;;;5076850;28;20512;-72
2021/01/15 01:59:00;;;;;;;25.75;14.65;;;0.80;2201.60;;;;;;5076895;28;20028;-71
2021/01/15 02:01:25;;;;;;;19.67;11.07;;;0.90;2201.60;;;;;;5060066;28;20043;-72
2021/01/15 02:04:02;;;;;;;19.88;12.35;;;0.80;2201.60;;;;;;5076708;28;20350;-72
2021/01/15 02:06:28;;;;;;;22.08;12.02;;;0.80;2201.60;;;;;;5094737;28;20016;-71
2021/01/15 02:08:54;;;;;;;20.38;11.32;;;0.80;2201.60;;;;;;5077029;28;20110;-71
2021/01/15 02:11:46;;;;;;;21.55;11.48;;;0.80;2201.60;;;;;;5060018;28;20042;-72
2021/01/15 02:14:21;;;;;;;18.52;10.45;;;0.80;2201.60;;;;;;5075024;28;20016;-71
2021/01/15 02:16:48;;;;;;;18.60;10.27;;;0.80;2201.60;;;;;;5094506;28;20024;-71
2021/01/15 02:19:32;;;;;;;17.50;9.98;;;0.80;2201.60;;;;;;5076703;28;20023;-71
2021/01/15 02:22:14;;;;;;;15.27;9.05;;;0.90;2201.60;;;;;;5094217;28;20103;-71
2021/01/15 02:24:57;;;;;;;17.60;10.30;;;0.80;2201.60;;;;;;5093948;28;20431;-71
2021/01/15 02:27:41;;;;;;;17.42;10.30;;;0.80;2201.60;;;;;;5076195;28;20526;-71
2021/01/15 02:30:16;;;;;;;18.05;9.38;;;0.90;2201.60;;;;;;5092400;28;20446;-72
2021/01/15 02:32:53;;;;;;;20.73;10.90;;;0.90;2201.60;;;;;;5093984;28;20613;-72
2021/01/15 02:35:38;;;;;;;15.90;9.85;;;0.90;2201.60;;;;;;5093718;28;20024;-71
2021/01/15 02:38:12;;;;;;;19.83;10.50;;;0.90;2201.60;;;;;;5077062;28;20042;-71
2021/01/15 02:41:10;;;;;;;16.73;9.32;;;0.90;2201.60;;;;;;5074945;28;20031;-72
2021/01/15 02:43:36;;;;;;;19.17;10.65;;;0.80;2201.60;;;;;;5073536;28;20054;-73
2021/01/15 02:46:03;;;;;;;21.83;11.48;;;0.90;2201.60;;;;;;5057897;28;20051;-71
2021/01/15 02:48:29;;;;;;;19.83;10.75;;;0.90;2201.60;;;;;;5058652;28;20486;-71
2021/01/15 02:50:55;;;;;;;20.45;10.13;;;0.90;2201.60;;;;;;5088441;28;20017;-71
2021/01/15 02:53:21;;;;;;;21.20;11.57;;;0.90;2201.60;;;;;;5093146;28;20093;-71
2021/01/15 02:55:46;;;;;;;20.70;11.90;;;0.90;2201.60;;;;;;5091884;28;20452;-71
2021/01/15 02:58:13;;;;;;;19.55;10.65;;;0.90;2201.60;;;;;;5092132;28;20024;-71
2021/01/15 03:00:40;;;;;;;24.27;12.93;;;0.90;2201.60;;;;;;5092759;28;20024;-70
2021/01/15 03:03:24;;;;;;;19.65;11.32;;;0.90;2201.60;;;;;;5091285;28;20024;-72
2021/01/15 03:06:13;;;;;;;20.77;12.45;;;0.90;2201.60;;;;;;5091479;28;20017;-71
2021/01/15 03:08:39;;;;;;;17.85;9.68;;;0.90;2201.60;;;;;;5073534;28;20495;-70
2021/01/15 03:11:04;;;;;;;17.90;9.30;;;0.90;2201.60;;;;;;5058505;28;20099;-72
2021/01/15 03:13:30;;;;;;;21.95;11.52;;;0.90;2201.60;;;;;;5063657;28;20036;-73
2021/01/15 03:15:58;;;;;;;19.77;10.98;;;0.90;2201.60;;;;;;5059266;28;20033;-72
2021/01/15 03:18:23;;;;;;;19.38;10.30;;;0.90;2201.60;;;;;;5074539;28;20036;-70
2021/01/15 03:20:49;;;;;;;16.92;9.80;;;0.90;2201.60;;;;;;5091675;28;20035;-72
2021/01/15 03:23:15;;;;;;;21.10;9.23;;;0.90;2201.60;;;;;;5057598;28;20049;-71
2021/01/15 03:25:40;;;;;;;19.77;9.57;;;0.80;2201.60;;;;;;5074528;28;20032;-72
2021/01/15 03:28:06;;;;;;;15.65;8.73;;;0.90;2201.60;;;;;;5091461;28;20069;-71
2021/01/15 03:30:32;;;;;;;17.55;9.65;;;0.90;2201.60;;;;;;5092898;28;20022;-71
2021/01/15 03:32:59;;;;;;;15.80;9.25;;;0.90;2201.60;;;;;;5092639;28;20020;-72
2021/01/15 03:35:25;;;;;;;19.02;10.35;;;0.90;2201.60;;;;;;5092710;28;20027;-72
2021/01/15 03:38:10;;;;;;;17.48;9.30;;;0.90;2201.60;;;;;;5091012;28;20044;-72
2021/01/15 03:40:40;;;;;;;16.90;9.45;;;0.90;2201.60;;;;;;5074828;28;20030;-71
2021/01/15 03:43:19;;;;;;;16.02;9.55;;;0.90;2201.60;;;;;;5074159;28;20107;-72
2021/01/15 03:45:45;;;;;;;15.05;8.63;;;0.90;2201.60;;;;;;5092119;28;20050;-72
2021/01/15 03:48:12;;;;;;;16.17;10.25;;;0.90;2201.60;;;;;;5074110;28;20028;-72
2021/01/15 03:50:37;;;;;;;18.40;10.15;;;0.90;2201.60;;;;;;5092484;28;20099;-71
2021/01/15 03:53:03;;;;;;;14.75;9.40;;;0.90;2201.60;;;;;;5092767;28;20115;-71
2021/01/15 03:55:29;;;;;;;16.65;9.40;;;0.90;2201.60;;;;;;5092152;28;20530;-72
2021/01/15 03:57:55;;;;;;;16.98;9.77;;;0.90;2201.60;;;;;;5092399;28;20536;-71
2021/01/15 04:00:20;;;;;;;13.85;8.82;;;0.90;2201.60;;;;;;5090901;28;20035;-71
2021/01/15 04:02:46;;;;;;;18.75;9.82;;;0.80;2201.60;;;;;;5092381;28;20016;-71
2021/01/15 04:05:13;;;;;;;18.70;10.10;;;0.80;2201.60;;;;;;5092281;28;20024;-71
2021/01/15 04:07:39;;;;;;;16.20;9.65;;;0.80;2201.60;;;;;;5090965;28;20017;-71
2021/01/15 04:10:06;;;;;;;17.80;10.05;;;0.80;2201.60;;;;;;5094559;28;20047;-71
2021/01/15 04:12:32;;;;;;;17.60;9.25;;;0.80;2201.60;;;;;;5096314;28;20012;-72
2021/01/15 04:14:58;;;;;;;16.17;8.80;;;0.80;2201.60;;;;;;5096754;28;20043;-72
2021/01/15 04:17:23;;;;;;;14.60;7.90;;;0.80;2201.60;;;;;;5096321;28;20020;-71
2021/01/15 04:19:49;;;;;;;14.98;8.73;;;0.80;2201.60;;;;;;5096252;28;20580;-71
2021/01/15 04:22:14;;;;;;;15.07;7.95;;;0.80;2201.60;;;;;;5096358;28;20027;-71
2021/01/15 04:24:40;;;;;;;13.48;8.18;;;0.80;2201.60;;;;;;5095951;28;20027;-72
2021/01/15 04:27:08;;;;;;;13.30;8.05;;;0.70;2201.60;;;;;;5096134;28;20435;-73
2021/01/15 04:29:35;;;;;;;14.23;7.65;;;0.70;2201.60;;;;;;5095855;28;20021;-71
2021/01/15 04:32:00;;;;;;;16.38;8.13;;;0.70;2201.60;;;;;;5096145;28;20578;-71
2021/01/15 04:34:26;;;;;;;13.73;7.53;;;0.70;2201.60;;;;;;5094596;28;20036;-72
2021/01/15 04:36:52;;;;;;;13.60;7.38;;;0.70;2201.60;;;;;;5095711;28;20093;-72
2021/01/15 04:39:19;;;;;;;14.25;7.38;;;0.70;2201.60;;;;;;5094721;28;20024;-73
2021/01/15 04:41:46;;;;;;;17.40;7.68;;;0.60;2201.60;;;;;;5077331;28;20427;-73
2021/01/15 04:44:12;;;;;;;14.75;7.45;;;0.60;2201.60;;;;;;5094671;28;20445;-71
2021/01/15 04:46:39;;;;;;;13.75;7.63;;;0.40;2201.60;;;;;;5077445;28;20044;-72
2021/01/15 04:49:05;;;;;;;15.48;7.97;;;0.20;2201.60;;;;;;5077767;28;20020;-71
2021/01/15 04:51:32;;;;;;;14.55;7.75;;;12.90;2201.60;;;;;;5077327;28;20024;-71
2021/01/15 04:54:02;;;;;;;13.70;7.47;;;13.00;2201.60;;;;;;5077927;28;20424;-72
2021/01/15 04:56:46;;;;;;;13.32;7.47;;;13.20;2201.60;;;;;;5095451;28;20047;-71
2021/01/15 04:59:12;;;;;;;13.80;7.40;;;13.30;2201.60;;;;;;5095398;28;20030;-71
2021/01/15 05:01:39;;;;;;;14.45;7.63;;;13.40;2201.60;;;;;;5077135;28;20032;-72
2021/01/15 05:04:09;;;;;;;18.45;9.52;;;13.60;2201.60;;;;;;5077160;28;20039;-71
2021/01/15 05:07:04;;;;;;;16.67;8.65;;;13.60;2201.60;;;;;;5095659;28;20021;-71
2021/01/15 05:09:41;;;;;;;12.13;6.38;;;38.40;2201.60;;;;;;5093339;28;20082;-72
2021/01/15 05:12:08;;;;;;;12.23;6.50;;;38.50;2201.60;;;;;;5095204;28;20024;-72
2021/01/15 05:14:34;;;;;;;12.07;6.15;;;38.60;2201.60;;;;;;5094135;28;20032;-72
2021/01/15 05:17:02;;;;;;;11.93;6.72;;;38.70;2201.60;;;;;;5095058;28;20047;-71
2021/01/15 05:19:28;;;;;;;15.60;8.13;;;38.80;2201.60;;;;;;5076797;28;20020;-72
2021/01/15 05:21:53;;;;;;;14.30;8.35;;;38.90;2201.60;;;;;;5076339;28;20395;-71
2021/01/15 05:24:19;;;;;;;18.38;8.32;;;38.90;2201.60;;;;;;5076897;28;20073;-72
2021/01/15 05:26:45;;;;;;;18.67;9.02;;;39.00;2201.60;;;;;;5095204;28;20024;-72
2021/01/15 05:29:10;;;;;;;25.30;10.75;;;39.10;2201.60;;;;;;5094751;28;20076;-73
2021/01/15 05:31:53;;;;;;;23.25;11.30;;;39.10;2201.60;;;;;;5094753;28;20039;-71
2021/01/15 05:34:19;;;;;;;25.95;12.70;;;39.20;2201.60;;;;;;5094772;28;20027;-71
2021/01/15 05:36:45;;;;;;;26.77;13.50;;;39.20;2201.60;;;;;;5094485;28;20040;-70
2021/01/15 05:39:11;;;;;;;31.80;16.58;;;39.20;2201.60;;;;;;5095037;28;20076;-72
2021/01/15 05:41:36;;;;;;;35.05;17.75;;;39.10;2201.60;;;;;;5094309;28;20091;-70
2021/01/15 05:44:03;;;;;;;36.85;19.20;;;38.90;2201.60;;;;;;5094571;28;20107;-72
2021/01/15 05:46:28;;;;;;;35.50;18.15;;;38.80;2201.60;;;;;;5094710;28;20012;-72
2021/01/15 05:48:54;;;;;;;33.15;17.35;;;38.70;2201.60;;;;;;5094947;28;20161;-71
2021/01/15 05:51:33;;;;;;;41.45;19.75;;;38.70;2201.60;;;;;;5094379;28;20027;-75
2021/01/15 05:54:00;;;;;;;61.00;24.08;;;38.60;2201.60;;;;;;5094525;28;20456;-74
2021/01/15 05:56:26;;;;;;;61.58;26.65;;;38.50;2201.60;;;;;;5094342;28;20024;-71
2021/01/15 05:59:02;;;;;;;72.63;31.17;;;38.40;2201.60;;;;;;5092797;28;20023;-70
2021/01/15 06:01:43;;;;;;;50.33;23.88;;;13.70;2201.60;;;;;;5094193;28;20020;-71
2021/01/15 06:04:09;;;;;;;88.88;40.45;;;13.60;2201.60;;;;;;5094048;28;20021;-71
2021/01/15 06:06:35;;;;;;;125.85;54.85;;;13.50;2201.60;;;;;;5094256;28;20024;-71
2021/01/15 06:09:00;;;;;;;58.15;29.50;;;13.40;2201.60;;;;;;5092772;28;20031;-70
2021/01/15 06:11:26;;;;;;;53.63;27.23;;;13.40;2201.60;;;;;;5076119;28;20122;-70
2021/01/15 06:13:51;;;;;;;51.60;24.45;;;13.30;2201.60;;;;;;5081216;28;20024;-70
2021/01/15 06:16:18;;;;;;;50.05;23.85;;;13.30;2201.60;;;;;;5093117;28;20099;-71
2021/01/15 06:19:01;;;;;;;48.30;24.05;;;13.20;2201.60;;;;;;5076169;28;20020;-71
2021/01/15 06:21:31;;;;;;;38.70;18.52;;;13.10;2201.60;;;;;;5080569;28;20012;-71
2021/01/15 06:24:01;;;;;;;106.28;42.78;;;13.00;2201.60;;;;;;5092726;28;20107;-71
2021/01/15 06:26:37;;;;;;;80.90;34.50;;;13.00;2201.60;;;;;;5076314;28;20073;-71
2021/01/15 06:29:11;;;;;;;53.38;25.83;;;12.90;2201.60;;;;;;5093903;28;20024;-72
2021/01/15 06:31:48;;;;;;;51.70;26.15;;;12.90;2201.60;;;;;;5061743;28;20020;-71
2021/01/15 06:34:19;;;;;;;53.90;24.98;;;0.10;2201.60;;;;;;5075625;28;20024;-71
2021/01/15 06:36:46;;;;;;;65.85;29.35;;;0.10;2201.60;;;;;;5092308;28;20127;-70
2021/01/15 06:39:11;;;;;;;97.00;40.15;;;0.10;2201.60;;;;;;5075585;28;20024;-70
2021/01/15 06:41:39;;;;;;;77.80;33.97;;;0.20;2201.60;;;;;;5092026;28;20016;-70
2021/01/15 06:44:10;;;;;;;45.30;22.67;;;0.20;2201.60;;;;;;5075489;28;20021;-71
2021/01/15 06:46:40;;;;;;;45.65;23.73;;;0.10;2201.60;;;;;;5093537;28;20012;-69
2021/01/15 06:49:05;;;;;;;54.75;27.38;;;0.00;2201.60;;;;;;5092322;28;20477;-70
2021/01/15 06:51:35;;;;;;;123.30;46.67;;;0.00;2201.60;;;;;;5075077;28;20027;-71
2021/01/15 06:54:05;;;;;;;202.95;74.05;;;0.10;2201.60;;;;;;5092226;28;20028;-70
2021/01/15 06:56:30;;;;;;;438.45;151.52;;;0.20;2201.60;;;;;;5075064;28;20358;-70
2021/01/15 06:58:58;;;;;;;176.90;75.80;;;0.30;2201.60;;;;;;5075033;28;20111;-70
2021/01/15 07:01:25;;;;;;;140.88;61.72;;;0.40;2201.60;;;;;;5068533;28;20511;-69
2021/01/15 07:04:14;;;;;;;132.13;60.53;;;0.60;2201.60;;;;;;5092916;28;20024;-71
2021/01/15 07:07:00;;;;;;;134.45;64.68;;;0.70;2201.60;;;;;;5093095;28;20065;-70
2021/01/15 07:09:27;;;;;;;173.38;83.32;;;0.80;2201.60;;;;;;5077699;28;20032;-70
2021/01/15 07:11:54;;;;;;;149.40;72.45;;;0.80;2201.60;;;;;;5093297;28;20036;-70
2021/01/15 07:14:19;;;;;;;125.93;65.80;;;0.90;2201.60;;;;;;5091578;28;20024;-70
2021/01/15 07:16:45;;;;;;;204.38;95.78;;;25.60;2201.60;;;;;;5074870;28;20069;-72
2021/01/15 07:19:20;;;;;;;191.80;85.28;;;25.60;2201.60;;;;;;5074719;28;20396;-70
2021/01/15 07:21:55;;;;;;;156.07;68.68;;;25.70;2201.60;;;;;;5074472;28;20427;-70
2021/01/15 07:24:27;;;;;;;143.95;66.63;;;25.70;2201.60;;;;;;5092665;28;20028;-70
2021/01/15 07:26:53;;;;;;;141.18;66.30;;;25.70;2201.60;;;;;;5092814;28;20016;-70
2021/01/15 07:29:19;;;;;;;175.80;80.63;;;25.70;2201.60;;;;;;5091245;28;20373;-72
2021/01/15 07:31:45;;;;;;;162.57;75.57;;;25.70;2201.60;;;;;;5092626;28;20035;-71
2021/01/15 07:34:20;;;;;;;126.00;57.15;;;25.80;2201.60;;;;;;5092679;28;20028;-70
2021/01/15 07:36:46;;;;;;;138.95;66.55;;;25.80;2201.60;;;;;;5081721;28;20051;-71
2021/01/15 07:39:17;;;;;;;94.63;44.60;;;25.70;2201.60;;;;;;5092638;28;20555;-70
2021/01/15 07:41:48;;;;;;;57.72;30.92;;;25.60;2201.60;;;;;;5092267;28;20020;-71
2021/01/15 07:44:23;;;;;;;45.83;23.42;;;0.80;2201.60;;;;;;5091002;28;20503;-70
2021/01/15 07:46:52;;;;;;;46.75;24.48;;;0.60;2201.60;;;;;;5092488;28;20102;-71
2021/01/15 07:49:18;;;;;;;39.22;20.75;;;0.50;2201.60;;;;;;5073958;28;20030;-70
2021/01/15 07:52:05;;;;;;;37.17;20.60;;;0.50;2201.60;;;;;;5074179;28;20016;-70
2021/01/15 07:55:06;;;;;;;44.80;21.48;;;0.50;2201.60;;;;;;5076431;28;20055;-70
2021/01/15 07:57:32;;;;;;;35.97;18.60;;;0.70;2201.60;;;;;;5091598;28;20020;-71
2021/01/15 08:00:18;;;;;;;75.50;36.92;;;0.70;2201.60;;;;;;5091110;28;20073;-71
2021/01/15 08:02:43;;;;;;;91.35;44.25;;;0.80;2201.60;;;;;;5077195;28;20058;-71
2021/01/15 08:05:09;;;;;;;76.70;42.90;;;25.60;2201.60;;;;;;5074308;28;20434;-72
2021/01/15 08:07:35;;;;;;;108.53;59.13;;;25.70;2201.60;;;;;;5092013;28;20468;-71
2021/01/15 08:10:01;;;;;;;94.32;48.92;;;25.90;2201.60;;;;;;5092283;28;20082;-71
2021/01/15 08:12:35;;;;;;;131.90;64.00;;;26.00;2201.60;;;;;;5074260;28;20081;-72
2021/01/15 08:15:01;;;;;;;114.03;55.53;;;26.20;2201.60;;;;;;5079359;28;20086;-71
2021/01/15 08:17:26;;;;;;;120.72;61.22;;;26.30;2201.60;;;;;;5092186;28;20036;-72
2021/01/15 08:19:52;;;;;;;147.77;72.28;;;26.40;2201.60;;;;;;5074137;28;20024;-71
2021/01/15 08:22:19;;;;;;;133.43;66.88;;;26.50;2201.60;;;;;;5074297;28;20028;-72
2021/01/15 08:24:48;;;;;;;202.52;88.25;;;51.20;2227.20;;;;;;5074112;28;20021;-71
2021/01/15 08:27:21;;;;;;;226.43;90.73;;;51.20;2227.20;;;;;;5073776;28;20473;-72
2021/01/15 08:29:47;;;;;;;104.13;48.45;;;51.30;2227.20;;;;;;5074042;28;20016;-72
2021/01/15 08:32:13;;;;;;;102.93;47.35;;;51.30;2227.20;;;;;;5057160;28;20492;-73
2021/01/15 08:34:39;;;;;;;204.23;83.43;;;51.30;2227.20;;;;;;5091937;28;20039;-71
2021/01/15 08:37:15;;;;;;;92.97;47.00;;;51.40;2227.20;;;;;;5090587;28;20074;-70
2021/01/15 08:39:48;;;;;;;58.13;32.15;;;51.30;2227.20;;;;;;5073645;28;20027;-71
2021/01/15 08:42:14;;;;;;;42.05;25.92;;;51.40;2227.20;;;;;;5071854;28;20060;-71
2021/01/15 08:44:41;;;;;;;42.13;23.92;;;51.60;2201.60;;;;;;5072237;28;20070;-71
2021/01/15 08:47:11;;;;;;;46.92;27.80;;;51.70;2176.00;;;;;;5074402;28;20509;-71
2021/01/15 08:49:37;;;;;;;57.15;31.38;;;51.70;2176.00;;;;;;5090583;28;20012;-71
2021/01/15 08:52:02;;;;;;;56.67;31.00;;;51.90;2176.00;;;;;;5071617;28;20419;-71
2021/01/15 08:54:30;;;;;;;52.50;30.92;;;51.90;2176.00;;;;;;5073581;28;20036;-71
2021/01/15 08:56:56;;;;;;;52.25;29.02;;;76.80;2150.40;;;;;;5077169;28;20015;-71
2021/01/15 08:59:29;;;;;;;55.03;30.75;;;52.10;2124.80;;;;;;5077012;28;20032;-71
2021/01/15 09:01:58;;;;;;;64.63;32.05;;;52.00;2150.40;;;;;;5077451;28;20024;-72
2021/01/15 09:04:28;;;;;;;54.80;30.05;;;76.80;2124.80;;;;;;5095607;28;20016;-72
2021/01/15 09:06:55;;;;;;;44.00;26.30;;;77.00;2124.80;;;;;;5075836;28;20023;-72
2021/01/15 09:09:21;;;;;;;43.47;25.98;;;77.00;2099.20;;;;;;5076831;28;20016;-71
2021/01/15 09:11:48;;;;;;;40.67;24.83;;;77.20;2099.20;;;;;;5094594;28;20063;-71
2021/01/15 09:14:14;;;;;;;49.45;25.17;;;77.30;2099.20;;;;;;5094803;28;20024;-71
2021/01/15 09:16:43;;;;;;;55.28;29.33;;;77.60;2022.40;;;;;;5076823;28;20030;-71
2021/01/15 09:19:10;;;;;;;87.25;39.78;;;77.60;2048.00;;;;;;5094320;28;20024;-72
2021/01/15 09:22:00;;;;;;;89.00;45.40;;;102.70;1996.80;;;;;;5094323;28;20032;-72
2021/01/15 09:24:26;;;;;;;76.15;46.88;;;102.90;1971.20;;;;;;5092505;28;20016;-72
2021/01/15 09:27:05;;;;;;;136.77;68.47;;;103.10;1920.00;;;;;;5076632;28;20020;-72
2021/01/15 09:29:32;;;;;;;113.43;59.50;;;128.10;1920.00;;;;;;5077215;28;20016;-72
2021/01/15 09:31:58;;;;;;;89.93;50.50;;;128.40;1894.40;;;;;;5094952;28;20081;-73
2021/01/15 09:34:24;;;;;;;142.10;80.85;;;128.40;1868.80;;;;;;5094497;28;20032;-72
2021/01/15 09:36:51;;;;;;;100.75;56.70;;;128.50;1894.40;;;;;;5094685;28;20051;-72
2021/01/15 09:39:17;;;;;;;66.20;36.30;;;128.50;1868.80;;;;;;5094832;28;20024;-73
2021/01/15 09:41:47;;;;;;;80.03;43.60;;;128.60;1868.80;;;;;;5095821;28;20088;-72
2021/01/15 09:44:14;;;;;;;74.50;38.88;;;153.90;1817.60;;;;;;5098178;28;20080;-72
2021/01/15 09:46:39;;;;;;;75.35;38.67;;;154.30;1766.40;;;;;;5094347;28;20028;-73
2021/01/15 09:49:05;;;;;;;45.40;25.17;;;179.60;1715.20;;;;;;5094904;28;20032;-72
2021/01/15 09:51:32;;;;;;;41.75;22.95;;;204.90;1612.80;;;;;;5094144;28;20028;-72
2021/01/15 09:53:57;;;;;;;98.20;51.10;;;256.00;1459.20;;;;;;5094555;28;20020;-72
2021/01/15 09:56:27;;;;;;;36.90;22.25;;;282.40;1356.80;;;;;;5093715;28;20453;-73
2021/01/15 09:59:00;;;;;;;35.35;22.23;;;307.90;1254.40;;;;;;5094137;28;20099;-72
2021/01/15 10:01:26;;;;;;;82.45;39.85;;;307.40;1305.60;;;;;;5094420;28;20020;-73
2021/01/15 10:03:52;;;;;;;77.85;48.67;;;282.50;1280.00;;;;;;5094579;28;20027;-72
2021/01/15 10:06:18;;;;;;;134.50;59.85;;;282.30;1305.60;;;;;;5094194;28;20036;-73
2021/01/15 10:08:44;;;;;;;44.97;28.02;;;256.50;1331.20;;;;;;5094305;28;20031;-74
2021/01/15 10:11:28;;;;;;;46.13;28.45;;;231.00;1408.00;;;;;;5095047;28;20024;-72
2021/01/15 10:13:54;;;;;;;65.05;36.38;;;230.60;1459.20;;;;;;5094248;28;20024;-73
2021/01/15 10:16:20;;;;;;;59.55;32.35;;;205.70;1484.80;;;;;;5075844;28;20381;-71
2021/01/15 10:18:46;;;;;;;58.28;32.28;;;205.60;1536.00;;;;;;5093479;28;20465;-71
2021/01/15 10:21:11;;;;;;;48.38;30.17;;;205.40;1510.40;;;;;;5093661;28;20024;-74
2021/01/15 10:23:37;;;;;;;116.20;60.97;;;205.10;1561.60;;;;;;5059365;28;20020;-70
2021/01/15 10:26:03;;;;;;;72.85;41.20;;;204.80;1587.20;;;;;;5093511;28;20048;-71
2021/01/15 10:28:29;;;;;;;37.65;23.25;;;204.90;1561.60;;;;;;5094528;28;20024;-71
2021/01/15 10:30:55;;;;;;;26.45;16.75;;;205.20;1536.00;;;;;;5060725;28;20476;-70
2021/01/15 10:33:22;;;;;;;36.10;20.90;;;256.10;1408.00;;;;;;5093729;28;20036;-70
2021/01/15 10:35:48;;;;;;;26.45;17.50;;;384.30;1100.80;;;;;;5042414;28;20107;-72
2021/01/15 10:38:14;;;;;;;20.85;13.77;;;410.00;1049.60;;;;;;5058253;28;20043;-72
2021/01/15 10:40:40;;;;;;;23.90;16.35;;;384.40;1024.00;;;;;;5090607;28;20416;-71
2021/01/15 10:43:05;;;;;;;24.88;17.50;;;512.20;793.60;;;;;;5074638;28;20077;-72
2021/01/15 10:45:31;;;;;;;23.42;15.30;;;589.70;742.40;;;;;;5093029;28;20290;-74
2021/01/15 10:47:57;;;;;;;34.90;22.92;;;538.00;768.00;;;;;;5094056;28;20469;-71
2021/01/15 10:50:22;;;;;;;35.88;25.88;;;486.70;819.20;;;;;;5093453;28;20023;-74
2021/01/15 10:52:54;;;;;;;36.38;25.98;;;487.20;819.20;;;;;;5093892;28;20020;-72
2021/01/15 10:55:20;;;;;;;36.78;26.25;;;537.80;742.40;;;;;;5080839;28;20033;-73
2021/01/15 10:57:46;;;;;;;34.60;24.45;;;435.40;947.20;;;;;;5092804;28;20024;-73
2021/01/15 11:00:13;;;;;;;35.72;25.17;;;409.60;1024.00;;;;;;5062382;28;20064;-71
2021/01/15 11:02:39;;;;;;;45.28;31.23;;;332.90;1152.00;;;;;;5092301;28;20038;-72
2021/01/15 11:05:06;;;;;;;36.40;25.27;;;307.90;1100.80;;;;;;5093037;28;20036;-71
2021/01/15 11:07:32;;;;;;;34.20;22.15;;;358.80;1049.60;;;;;;5091791;28;20048;-71
2021/01/15 11:09:58;;;;;;;32.13;22.73;;;486.50;844.80;;;;;;5092509;28;20192;-72
2021/01/15 11:12:23;;;;;;;40.72;28.65;;;614.70;665.60;;;;;;5091547;28;20036;-71
2021/01/15 11:14:49;;;;;;;35.28;25.42;;;614.50;665.60;;;;;;5091728;28;20419;-72
2021/01/15 11:17:15;;;;;;;39.85;30.55;;;512.30;742.40;;;;;;5092770;28;20047;-71
2021/01/15 11:19:40;;;;;;;57.42;40.35;;;615.30;665.60;;;;;;5091964;28;20373;-71
2021/01/15 11:22:06;;;;;;;47.25;33.30;;;666.40;640.00;;;;;;5092572;28;20036;-71
2021/01/15 11:24:32;;;;;;;41.97;32.38;;;717.70;563.20;;;;;;5092955;28;20020;-71
2021/01/15 11:26:58;;;;;;;43.20;32.70;;;768.00;537.60;;;;;;5057711;28;20016;-72
2021/01/15 11:29:24;;;;;;;38.35;30.05;;;768.40;537.60;;;;;;5094011;28;20561;-71
2021/01/15 11:31:49;;;;;;;32.85;25.77;;;794.20;537.60;;;;;;5092803;28;20028;-71
2021/01/15 11:34:16;;;;;;;28.75;23.05;;;819.80;486.40;;;;;;5087216;28;20029;-71
2021/01/15 11:36:42;;;;;;;28.98;22.42;;;768.10;537.60;;;;;;5091521;28;20044;-70
2021/01/15 11:39:11;;;;;;;32.28;25.42;;;640.70;563.20;;;;;;5062583;28;20066;-72
2021/01/15 11:41:37;;;;;;;34.28;25.60;;;563.50;716.80;;;;;;5096745;28;20073;-70
2021/01/15 11:44:05;;;;;;;53.03;38.83;;;409.90;870.40;;;;;;5092582;28;20024;-70
2021/01/15 11:46:31;;;;;;;31.63;22.65;;;358.50;998.40;;;;;;5092149;28;20024;-71
2021/01/15 11:48:58;;;;;;;34.92;23.30;;;333.30;1024.00;;;;;;5091753;28;20034;-72
2021/01/15 11:51:24;;;;;;;37.05;24.60;;;307.40;1126.40;;;;;;5091446;28;20035;-72
2021/01/15 11:53:49;;;;;;;37.60;26.35;;;256.20;1203.20;;;;;;5073801;28;20024;-73
2021/01/15 11:56:16;;;;;;;81.35;36.15;;;205.70;1356.80;;;;;;5073839;28;20042;-71
2021/01/15 11:58:42;;;;;;;62.63;32.88;;;205.20;1408.00;;;;;;5073877;28;20493;-71
2021/01/15 12:01:08;;;;;;;56.22;33.58;;;180.10;1433.60;;;;;;5074987;28;20035;-73
2021/01/15 12:03:34;;;;;;;50.80;33.25;;;179.80;1510.40;;;;;;5073983;28;20016;-69
2021/01/15 12:06:00;;;;;;;45.92;29.75;;;179.50;1510.40;;;;;;5092032;28;20016;-69
2021/01/15 12:08:25;;;;;;;45.83;27.80;;;179.40;1536.00;;;;;;5092518;28;20027;-72
2021/01/15 12:10:55;;;;;;;38.80;23.98;;;154.50;1587.20;;;;;;5057549;28;20020;-72
2021/01/15 12:13:22;;;;;;;31.95;19.55;;;179.30;1587.20;;;;;;5091261;28;20059;-70
2021/01/15 12:15:48;;;;;;;30.85;19.70;;;179.20;1587.20;;;;;;5073535;28;20142;-73
2021/01/15 12:18:14;;;;;;;28.45;17.25;;;179.20;1638.40;;;;;;5057607;28;20042;-72
2021/01/15 12:20:40;;;;;;;30.40;17.65;;;154.50;1612.80;;;;;;5073027;28;20033;-71